Time;durP1;ratioP1;P1;durP2;ratioP2;P2;SDS_P1;SDS_P2;PMS_P1;PMS_P2;Temp;Humidity;BMP_temperature;BMP_pressure;BME280_temperature;BME280_humidity;BME280_pressure;Samples;Min_cycle;Max_cycle;Signal;HPM_P1;HPM_P2
2022/10/01 00:01:14;;;;;;;22.77;16.50;;;10.50;99.90;;;;;;5066090;28;20101;-80
2022/10/01 00:03:41;;;;;;;23.58;17.40;;;10.40;99.90;;;;;;5065646;28;20763;-80
2022/10/01 00:06:11;;;;;;;23.27;16.27;;;10.40;99.90;;;;;;5052371;28;20048;-80
2022/10/01 00:08:41;;;;;;;22.27;17.65;;;10.40;99.90;;;;;;5055781;28;20048;-80
2022/10/01 00:11:13;;;;;;;25.27;17.85;;;10.40;99.90;;;;;;5056789;28;20087;-80
2022/10/01 00:13:41;;;;;;;32.03;18.92;;;10.40;99.90;;;;;;5058434;28;20098;-79
2022/10/01 00:16:10;;;;;;;23.23;17.50;;;10.40;99.90;;;;;;5052146;28;20489;-80
2022/10/01 00:18:40;;;;;;;30.65;19.38;;;10.40;99.90;;;;;;5054225;28;20836;-80
2022/10/01 00:21:11;;;;;;;26.50;18.80;;;10.40;99.90;;;;;;5049619;28;20569;-80
2022/10/01 00:23:37;;;;;;;26.15;18.67;;;10.40;99.90;;;;;;5069804;28;20431;-79
2022/10/01 00:26:19;;;;;;;26.45;19.00;;;10.40;99.90;;;;;;5053976;28;20055;-80
2022/10/01 00:28:47;;;;;;;25.52;20.08;;;10.40;99.90;;;;;;5051287;28;20386;-79
2022/10/01 00:31:14;;;;;;;25.35;19.05;;;10.40;99.90;;;;;;5044288;28;20057;-81
2022/10/01 00:33:41;;;;;;;28.58;21.77;;;10.40;99.90;;;;;;5044275;28;20052;-80
2022/10/01 00:36:08;;;;;;;30.95;21.10;;;10.40;99.90;;;;;;5034239;28;20104;-80
2022/10/01 00:38:35;;;;;;;29.08;20.90;;;10.40;99.90;;;;;;5031031;28;20092;-77
2022/10/01 00:41:02;;;;;;;27.38;20.58;;;10.40;99.90;;;;;;5028128;28;20053;-78
2022/10/01 00:43:33;;;;;;;25.10;19.42;;;10.30;99.90;;;;;;5029800;28;20433;-78
2022/10/01 00:46:22;;;;;;;33.78;22.48;;;10.40;99.90;;;;;;5031362;28;20123;-78
2022/10/01 00:48:57;;;;;;;30.25;20.67;;;10.30;99.90;;;;;;5031315;28;20060;-78
2022/10/01 00:51:28;;;;;;;26.70;19.52;;;10.40;99.90;;;;;;5044537;28;20055;-78
2022/10/01 00:54:01;;;;;;;31.40;21.08;;;10.40;99.90;;;;;;5031989;28;20045;-79
2022/10/01 00:56:28;;;;;;;34.63;21.52;;;10.30;99.90;;;;;;5048561;28;20369;-79
2022/10/01 00:58:54;;;;;;;28.05;21.40;;;10.40;99.90;;;;;;5047104;28;20102;-78
2022/10/01 01:01:23;;;;;;;27.52;19.60;;;10.40;99.90;;;;;;5028524;28;20049;-78
2022/10/01 01:03:49;;;;;;;34.90;22.23;;;10.30;99.90;;;;;;5029988;28;20064;-80
2022/10/01 01:06:15;;;;;;;32.03;21.55;;;10.30;99.90;;;;;;5037565;28;20053;-81
2022/10/01 01:08:41;;;;;;;29.48;19.92;;;10.40;99.90;;;;;;5009029;28;20042;-81
2022/10/01 01:11:51;;;;;;;35.20;23.52;;;10.40;99.90;;;;;;5012514;28;20103;-81
2022/10/01 01:14:47;;;;;;;29.95;20.92;;;10.40;99.90;;;;;;4979166;28;20058;-80
2022/10/01 01:17:24;;;;;;;35.03;21.83;;;10.40;99.90;;;;;;5003649;28;20129;-80
2022/10/01 01:20:03;;;;;;;27.50;19.95;;;10.30;99.90;;;;;;5030663;28;20397;-80
2022/10/01 01:22:35;;;;;;;31.90;21.75;;;10.40;99.90;;;;;;5032078;28;20144;-80
2022/10/01 01:25:19;;;;;;;36.65;25.17;;;10.40;99.90;;;;;;5048204;28;20051;-80
2022/10/01 01:28:02;;;;;;;33.58;22.02;;;10.40;99.90;;;;;;5030610;28;20067;-81
2022/10/01 01:30:30;;;;;;;29.92;20.77;;;10.30;99.90;;;;;;5037365;28;20135;-81
2022/10/01 01:33:11;;;;;;;34.72;23.10;;;10.40;99.90;;;;;;5065405;28;20064;-78
2022/10/01 01:36:03;;;;;;;38.13;23.75;;;10.40;99.90;;;;;;5050793;28;20041;-78
2022/10/01 01:38:36;;;;;;;37.92;23.45;;;10.40;99.90;;;;;;5066595;28;20052;-80
2022/10/01 01:41:04;;;;;;;40.90;24.25;;;10.40;99.90;;;;;;5048887;28;20072;-78
2022/10/01 01:43:33;;;;;;;33.00;22.45;;;10.40;99.90;;;;;;5064093;28;20045;-78
2022/10/01 01:46:03;;;;;;;45.63;25.92;;;10.30;99.90;;;;;;5045420;28;20052;-79
2022/10/01 01:48:30;;;;;;;39.53;25.38;;;10.40;99.90;;;;;;5050358;28;20548;-79
2022/10/01 01:51:08;;;;;;;32.58;23.58;;;10.40;99.90;;;;;;5048775;28;20049;-78
2022/10/01 01:53:34;;;;;;;34.15;23.13;;;10.50;99.90;;;;;;5049621;28;20109;-78
2022/10/01 01:56:01;;;;;;;34.58;22.05;;;10.40;99.90;;;;;;5064171;28;20044;-78
2022/10/01 01:58:27;;;;;;;28.70;20.13;;;10.40;99.90;;;;;;5043217;28;20045;-78
2022/10/01 02:00:53;;;;;;;37.55;23.75;;;10.40;99.90;;;;;;5068858;28;20048;-78
2022/10/01 02:03:22;;;;;;;32.40;22.17;;;10.40;99.90;;;;;;5049709;28;20041;-78
2022/10/01 02:06:06;;;;;;;30.67;20.95;;;10.40;99.90;;;;;;5056959;28;20101;-78
2022/10/01 02:08:45;;;;;;;38.28;23.17;;;10.40;99.90;;;;;;5042661;28;20135;-77
2022/10/01 02:11:37;;;;;;;47.75;26.52;;;10.40;99.90;;;;;;5057345;28;20052;-78
2022/10/01 02:14:36;;;;;;;31.55;21.10;;;10.30;99.90;;;;;;5066067;28;20044;-77
2022/10/01 02:17:17;;;;;;;32.95;20.25;;;10.40;99.90;;;;;;5065438;28;20068;-79
2022/10/01 02:19:59;;;;;;;28.77;19.80;;;10.40;99.90;;;;;;5062133;28;20079;-78
2022/10/01 02:22:46;;;;;;;34.85;21.52;;;10.40;99.90;;;;;;5066324;28;20044;-78
2022/10/01 02:25:16;;;;;;;28.33;19.90;;;10.40;99.90;;;;;;5063029;28;20076;-78
2022/10/01 02:27:54;;;;;;;33.35;22.13;;;10.40;99.90;;;;;;5064682;28;20123;-78
2022/10/01 02:30:21;;;;;;;32.13;22.63;;;10.40;99.90;;;;;;5053946;28;20079;-78
2022/10/01 02:32:49;;;;;;;26.67;20.60;;;10.40;99.90;;;;;;5070152;28;20477;-78
2022/10/01 02:35:18;;;;;;;34.55;21.88;;;10.40;99.90;;;;;;5073013;28;20485;-78
2022/10/01 02:37:48;;;;;;;39.42;22.58;;;10.40;99.90;;;;;;5072943;28;20481;-78
2022/10/01 02:40:18;;;;;;;38.33;22.92;;;10.40;99.90;;;;;;5055512;28;20044;-78
2022/10/01 02:42:51;;;;;;;26.65;19.02;;;10.50;99.90;;;;;;5050137;28;20402;-78
2022/10/01 02:45:24;;;;;;;29.00;19.88;;;10.40;99.90;;;;;;5069639;28;20051;-78
2022/10/01 02:47:58;;;;;;;25.33;18.70;;;10.40;99.90;;;;;;5055339;28;20084;-78
2022/10/01 02:50:30;;;;;;;29.75;20.08;;;10.40;99.90;;;;;;5056208;28;20123;-79
2022/10/01 02:53:05;;;;;;;29.17;19.98;;;10.40;99.90;;;;;;5068038;28;20051;-79
2022/10/01 02:55:39;;;;;;;23.02;16.15;;;10.50;99.90;;;;;;5050303;28;20054;-78
2022/10/01 02:58:06;;;;;;;30.90;19.20;;;10.40;99.90;;;;;;5032554;28;20553;-80
2022/10/01 03:00:32;;;;;;;24.52;16.58;;;10.50;99.90;;;;;;5050095;28;20085;-78
2022/10/01 03:02:58;;;;;;;29.15;18.40;;;10.50;99.90;;;;;;5071366;28;20052;-77
2022/10/01 03:05:23;;;;;;;22.95;16.30;;;10.50;99.90;;;;;;5073207;28;20059;-78
2022/10/01 03:07:49;;;;;;;24.30;16.85;;;10.50;99.90;;;;;;5055180;28;20081;-78
2022/10/01 03:10:15;;;;;;;19.83;14.15;;;10.50;99.90;;;;;;5064614;28;20058;-78
2022/10/01 03:12:43;;;;;;;23.38;16.77;;;10.50;99.90;;;;;;5067947;28;20546;-79
2022/10/01 03:15:11;;;;;;;21.17;15.90;;;10.50;99.90;;;;;;5057407;28;20120;-78
2022/10/01 03:17:36;;;;;;;20.63;14.68;;;10.50;99.90;;;;;;5054716;28;20088;-78
2022/10/01 03:20:04;;;;;;;18.67;13.00;;;10.50;99.90;;;;;;5055008;28;20861;-78
2022/10/01 03:22:30;;;;;;;22.73;15.82;;;10.60;99.90;;;;;;5050209;28;20140;-78
2022/10/01 03:24:56;;;;;;;15.25;12.07;;;10.60;99.90;;;;;;5038174;28;20083;-78
2022/10/01 03:27:21;;;;;;;20.80;14.30;;;10.60;99.90;;;;;;5009977;28;20052;-78
2022/10/01 03:29:47;;;;;;;17.35;12.82;;;10.60;99.90;;;;;;5053079;28;20052;-78
2022/10/01 03:32:14;;;;;;;16.63;12.55;;;10.60;99.90;;;;;;5057116;28;20052;-78
2022/10/01 03:34:40;;;;;;;17.70;12.48;;;10.60;99.90;;;;;;5027036;28;20482;-77
2022/10/01 03:37:06;;;;;;;13.63;10.80;;;10.60;99.90;;;;;;5072804;28;20058;-78
2022/10/01 03:39:32;;;;;;;16.17;11.02;;;10.60;99.90;;;;;;5046738;28;20118;-79
2022/10/01 03:41:57;;;;;;;14.00;10.07;;;10.70;99.90;;;;;;5067925;28;20124;-78
2022/10/01 03:44:23;;;;;;;15.82;10.38;;;10.70;99.90;;;;;;5066773;28;20079;-79
2022/10/01 03:46:49;;;;;;;15.75;11.00;;;10.70;99.90;;;;;;5064964;28;20432;-79
2022/10/01 03:49:15;;;;;;;13.30;10.18;;;10.80;99.90;;;;;;5046423;28;20048;-78
2022/10/01 03:51:41;;;;;;;14.20;10.27;;;10.70;99.90;;;;;;5046986;28;20060;-78
2022/10/01 03:54:08;;;;;;;11.75;9.13;;;10.70;99.90;;;;;;5064455;28;20052;-78
2022/10/01 03:56:34;;;;;;;14.85;10.98;;;10.70;99.90;;;;;;5030569;28;20052;-78
2022/10/01 03:59:00;;;;;;;10.48;8.50;;;10.70;99.90;;;;;;5062890;28;20051;-77
2022/10/01 04:01:27;;;;;;;8.77;7.03;;;10.70;99.90;;;;;;5070225;28;20520;-80
2022/10/01 04:03:53;;;;;;;11.73;8.65;;;10.60;99.90;;;;;;5067404;28;20044;-78
2022/10/01 04:06:18;;;;;;;11.00;7.22;;;10.70;99.90;;;;;;5051537;28;20389;-78
2022/10/01 04:08:44;;;;;;;11.57;8.82;;;10.70;99.90;;;;;;5056290;28;20098;-78
2022/10/01 04:11:10;;;;;;;14.55;9.82;;;10.70;99.90;;;;;;5064510;28;20047;-78
2022/10/01 04:13:36;;;;;;;10.68;8.82;;;10.70;99.90;;;;;;5064479;28;20096;-78
2022/10/01 04:16:03;;;;;;;9.43;6.85;;;10.70;99.90;;;;;;5046740;28;20561;-78
2022/10/01 04:18:29;;;;;;;9.82;7.47;;;10.70;99.90;;;;;;5076809;28;20556;-78
2022/10/01 04:20:55;;;;;;;9.27;7.13;;;10.80;99.90;;;;;;5066069;28;20056;-79
2022/10/01 04:23:21;;;;;;;10.10;6.72;;;10.90;99.90;;;;;;5047109;28;20052;-79
2022/10/01 04:25:47;;;;;;;8.90;6.72;;;10.70;99.90;;;;;;5042147;28;20044;-79
2022/10/01 04:28:13;;;;;;;11.77;8.25;;;10.70;99.90;;;;;;5071822;28;20043;-79
2022/10/01 04:30:41;;;;;;;12.00;8.40;;;10.70;99.90;;;;;;5067421;28;20043;-79
2022/10/01 04:33:09;;;;;;;10.70;7.90;;;10.80;99.90;;;;;;5067310;28;20448;-79
2022/10/01 04:35:35;;;;;;;11.95;8.48;;;10.70;99.90;;;;;;5052045;28;20081;-79
2022/10/01 04:38:05;;;;;;;11.38;8.82;;;10.80;99.90;;;;;;5067425;28;20059;-79
2022/10/01 04:40:33;;;;;;;12.25;8.63;;;10.90;99.90;;;;;;5071063;28;20052;-79
2022/10/01 04:43:00;;;;;;;11.20;8.10;;;10.80;99.90;;;;;;5071020;28;20047;-79
2022/10/01 04:45:25;;;;;;;10.68;7.82;;;10.80;99.90;;;;;;5055475;28;20727;-79
2022/10/01 04:47:55;;;;;;;11.90;8.02;;;10.80;99.90;;;;;;5054529;28;20055;-79
2022/10/01 04:50:23;;;;;;;12.77;8.85;;;10.80;99.90;;;;;;5049829;28;20044;-79
2022/10/01 04:52:50;;;;;;;10.43;7.30;;;10.90;99.90;;;;;;5052191;28;20398;-78
2022/10/01 04:55:16;;;;;;;9.32;6.15;;;10.90;99.90;;;;;;5058403;28;20068;-79
2022/10/01 04:57:42;;;;;;;9.82;7.30;;;10.90;99.90;;;;;;5065567;28;20044;-79
2022/10/01 05:00:14;;;;;;;8.98;6.80;;;10.90;99.90;;;;;;5055052;28;20485;-79
2022/10/01 05:02:47;;;;;;;10.45;7.80;;;10.90;99.90;;;;;;5070703;28;20040;-79
2022/10/01 05:05:15;;;;;;;10.93;8.38;;;11.00;99.90;;;;;;5046892;28;20047;-79
2022/10/01 05:07:41;;;;;;;12.68;9.88;;;11.00;99.90;;;;;;5053723;28;20051;-79
2022/10/01 05:10:11;;;;;;;10.52;8.15;;;11.10;99.90;;;;;;5063656;28;20052;-79
2022/10/01 05:12:36;;;;;;;13.52;9.48;;;11.00;99.90;;;;;;5052150;28;20054;-79
2022/10/01 05:15:03;;;;;;;11.25;8.93;;;11.00;99.90;;;;;;5039356;28;20041;-79
2022/10/01 05:17:32;;;;;;;13.90;9.82;;;11.00;99.90;;;;;;5036639;28;20080;-79
2022/10/01 05:19:58;;;;;;;10.30;8.75;;;11.10;99.90;;;;;;5029567;28;20119;-79
2022/10/01 05:22:24;;;;;;;10.35;8.50;;;11.10;99.90;;;;;;5054662;28;20044;-79
2022/10/01 05:24:50;;;;;;;11.20;8.60;;;11.10;99.90;;;;;;5071278;28;20047;-79
2022/10/01 05:27:17;;;;;;;11.80;9.52;;;11.10;99.90;;;;;;5051079;28;20467;-79
2022/10/01 05:29:43;;;;;;;10.70;7.53;;;11.10;99.90;;;;;;5035939;28;20048;-79
2022/10/01 05:32:09;;;;;;;11.93;9.00;;;11.20;99.90;;;;;;5049963;28;20105;-79
2022/10/01 05:34:35;;;;;;;12.45;9.23;;;11.20;99.90;;;;;;5068867;28;20490;-80
2022/10/01 05:37:02;;;;;;;11.07;8.00;;;11.30;99.90;;;;;;5047831;28;20048;-80
2022/10/01 05:39:29;;;;;;;12.57;9.13;;;11.20;99.90;;;;;;5044843;28;20036;-79
2022/10/01 05:41:55;;;;;;;14.88;9.93;;;11.20;99.90;;;;;;5068813;28;20066;-79
2022/10/01 05:44:22;;;;;;;12.73;10.77;;;11.30;99.90;;;;;;5037681;28;20543;-80
2022/10/01 05:46:47;;;;;;;13.38;10.05;;;11.30;99.90;;;;;;5068418;28;20047;-79
2022/10/01 05:49:14;;;;;;;15.15;11.48;;;11.30;99.90;;;;;;5051523;28;20127;-79
2022/10/01 05:51:40;;;;;;;20.10;13.90;;;11.30;99.90;;;;;;5043807;28;20036;-80
2022/10/01 05:54:07;;;;;;;14.43;11.20;;;11.60;99.90;;;;;;5026340;28;20055;-79
2022/10/01 05:56:32;;;;;;;12.82;10.63;;;11.40;99.90;;;;;;5036483;28;20066;-79
2022/10/01 05:58:58;;;;;;;16.25;11.60;;;11.40;99.90;;;;;;5046940;28;20645;-79
2022/10/01 06:01:24;;;;;;;20.02;12.80;;;11.40;99.90;;;;;;5053664;28;20056;-79
2022/10/01 06:03:51;;;;;;;14.27;11.10;;;11.40;99.90;;;;;;5025126;28;20560;-79
2022/10/01 06:06:21;;;;;;;13.98;11.95;;;11.50;99.90;;;;;;5050850;28;20048;-79
2022/10/01 06:08:47;;;;;;;18.67;13.40;;;11.50;99.90;;;;;;5038814;28;20776;-79
2022/10/01 06:11:12;;;;;;;18.65;13.55;;;11.50;99.90;;;;;;5067088;28;20041;-79
2022/10/01 06:13:43;;;;;;;21.52;13.70;;;11.60;99.90;;;;;;5061493;28;20048;-79
2022/10/01 06:16:10;;;;;;;14.77;11.85;;;11.60;99.90;;;;;;5053266;28;20489;-80
2022/10/01 06:18:36;;;;;;;16.45;13.20;;;11.60;99.90;;;;;;5067890;28;20044;-80
2022/10/01 06:21:02;;;;;;;18.27;13.98;;;11.60;99.90;;;;;;5048905;28;20044;-79
2022/10/01 06:23:27;;;;;;;17.85;13.27;;;11.70;99.90;;;;;;5074683;28;20076;-80
2022/10/01 06:25:53;;;;;;;18.58;13.65;;;11.60;99.90;;;;;;5032852;28;20068;-81
2022/10/01 06:28:19;;;;;;;25.33;16.85;;;11.70;99.90;;;;;;5028399;28;20044;-82
2022/10/01 06:30:45;;;;;;;23.30;15.85;;;11.70;99.90;;;;;;5085531;28;20486;-82
2022/10/01 06:33:13;;;;;;;17.60;14.07;;;11.70;99.90;;;;;;5054227;28;20045;-82
2022/10/01 06:35:45;;;;;;;22.25;16.63;;;11.80;99.90;;;;;;5049353;28;20091;-82
2022/10/01 06:38:12;;;;;;;20.73;16.42;;;11.80;99.90;;;;;;5052580;28;20490;-81
2022/10/01 06:40:38;;;;;;;24.90;16.85;;;11.90;99.90;;;;;;5072633;28;20040;-83
2022/10/01 06:43:06;;;;;;;27.90;19.30;;;11.90;99.90;;;;;;5066637;28;20520;-82
2022/10/01 06:45:36;;;;;;;33.50;19.40;;;12.00;99.90;;;;;;5051589;28;20036;-81
2022/10/01 06:48:02;;;;;;;21.17;16.55;;;12.10;99.90;;;;;;5061166;28;20476;-80
2022/10/01 06:50:29;;;;;;;19.08;16.40;;;12.20;99.90;;;;;;5043168;28;20074;-77
2022/10/01 06:52:57;;;;;;;30.00;19.65;;;12.20;99.90;;;;;;5063537;28;20070;-79
2022/10/01 06:55:30;;;;;;;24.13;17.55;;;12.30;99.90;;;;;;5044124;28;20499;-77
2022/10/01 06:58:01;;;;;;;27.83;21.58;;;12.30;99.90;;;;;;5055347;28;20044;-77
2022/10/01 07:00:28;;;;;;;29.83;19.98;;;12.30;99.90;;;;;;5073406;28;20130;-81
2022/10/01 07:02:54;;;;;;;27.60;17.95;;;12.30;99.90;;;;;;5055787;28;20051;-80
2022/10/01 07:05:21;;;;;;;25.40;19.65;;;12.30;99.90;;;;;;5036594;28;20440;-80
2022/10/01 07:07:47;;;;;;;22.92;16.98;;;12.40;99.90;;;;;;5021290;28;20409;-80
2022/10/01 07:10:15;;;;;;;33.47;22.52;;;12.40;99.90;;;;;;5021464;28;20036;-80
2022/10/01 07:12:41;;;;;;;23.25;18.98;;;12.40;99.90;;;;;;5043472;28;20056;-80
2022/10/01 07:15:07;;;;;;;39.50;20.63;;;12.40;99.90;;;;;;5038844;28;20052;-81
2022/10/01 07:17:41;;;;;;;45.08;22.83;;;12.40;99.90;;;;;;5052000;28;20066;-81
2022/10/01 07:20:07;;;;;;;35.47;22.70;;;12.40;99.90;;;;;;5056980;28;20056;-81
2022/10/01 07:22:32;;;;;;;22.70;19.23;;;12.40;99.90;;;;;;5036006;28;20051;-82
2022/10/01 07:24:58;;;;;;;34.33;22.08;;;12.40;99.90;;;;;;5038438;28;20044;-81
2022/10/01 07:27:24;;;;;;;35.80;22.13;;;12.40;99.90;;;;;;5029399;28;20040;-81
2022/10/01 07:29:50;;;;;;;28.42;19.50;;;12.40;99.90;;;;;;5047412;28;20044;-81
2022/10/01 07:32:15;;;;;;;39.65;23.80;;;12.40;99.90;;;;;;5033182;28;20064;-81
2022/10/01 07:34:41;;;;;;;35.85;22.13;;;12.50;99.90;;;;;;5067881;28;20083;-81
2022/10/01 07:37:07;;;;;;;27.75;18.70;;;12.50;99.90;;;;;;5030312;28;20056;-81
2022/10/01 07:39:34;;;;;;;28.67;19.83;;;12.60;99.90;;;;;;5031181;28;20398;-81
2022/10/01 07:41:59;;;;;;;29.52;19.95;;;12.60;99.90;;;;;;5061692;28;20071;-81
2022/10/01 07:44:26;;;;;;;33.75;19.42;;;12.60;99.90;;;;;;5038540;28;20087;-81
2022/10/01 07:46:52;;;;;;;27.65;18.50;;;12.70;99.90;;;;;;5062890;28;20067;-81
2022/10/01 07:49:19;;;;;;;24.30;17.23;;;12.80;99.90;;;;;;5053351;28;20076;-82
2022/10/01 07:51:47;;;;;;;21.83;15.80;;;12.90;99.90;;;;;;5037762;28;20074;-80
2022/10/01 07:54:13;;;;;;;25.63;16.30;;;13.00;99.90;;;;;;5046727;28;20575;-80
2022/10/01 07:56:38;;;;;;;21.67;15.25;;;13.00;99.90;;;;;;5042529;28;20044;-81
2022/10/01 07:59:04;;;;;;;25.55;15.98;;;12.90;99.90;;;;;;5022405;28;20387;-81
2022/10/01 08:01:31;;;;;;;22.25;14.50;;;12.80;99.90;;;;;;5055420;28;20063;-81
2022/10/01 08:03:56;;;;;;;20.85;12.38;;;13.00;99.90;;;;;;5041328;28;20052;-81
2022/10/01 08:06:22;;;;;;;24.20;13.98;;;12.70;99.90;;;;;;5034556;28;20543;-78
2022/10/01 08:08:48;;;;;;;21.13;14.00;;;12.70;99.90;;;;;;5061524;28;20135;-79
2022/10/01 08:11:16;;;;;;;18.77;14.23;;;12.70;99.90;;;;;;5038947;28;20071;-79
2022/10/01 08:13:46;;;;;;;23.17;15.02;;;12.70;99.90;;;;;;5023048;28;20048;-79
2022/10/01 08:16:12;;;;;;;26.52;14.75;;;12.70;99.90;;;;;;5057509;28;20055;-80
2022/10/01 08:18:41;;;;;;;27.95;18.02;;;12.80;99.90;;;;;;5064989;28;20043;-79
2022/10/01 08:21:07;;;;;;;16.95;11.10;;;12.90;99.90;;;;;;5045268;28;20105;-79
2022/10/01 08:23:34;;;;;;;20.88;11.15;;;13.00;99.90;;;;;;5047992;28;20071;-79
2022/10/01 08:26:03;;;;;;;20.40;10.15;;;13.20;99.90;;;;;;5033539;28;20106;-80
2022/10/01 08:28:28;;;;;;;22.33;10.68;;;13.30;99.90;;;;;;5064705;28;20072;-79
2022/10/01 08:30:55;;;;;;;23.27;12.13;;;13.30;99.90;;;;;;5054620;28;20084;-78
2022/10/01 08:33:21;;;;;;;22.13;10.15;;;13.30;99.90;;;;;;5054311;28;20040;-78
2022/10/01 08:35:47;;;;;;;16.20;9.10;;;13.50;99.90;;;;;;5067870;28;20151;-80
2022/10/01 08:38:13;;;;;;;24.92;10.02;;;13.60;99.90;;;;;;5051634;28;20484;-81
2022/10/01 08:41:08;;;;;;;17.00;8.73;;;13.70;99.90;;;;;;5053300;28;20439;-81
2022/10/01 08:43:37;;;;;;;19.02;8.68;;;13.70;99.90;;;;;;5069069;28;20048;-81
2022/10/01 08:46:12;;;;;;;23.05;9.90;;;13.80;99.90;;;;;;5072215;28;20044;-80
2022/10/01 08:49:02;;;;;;;20.27;9.25;;;13.80;99.90;;;;;;5071136;28;20046;-81
2022/10/01 08:51:42;;;;;;;17.63;6.70;;;13.90;99.90;;;;;;5054937;28;20048;-80
2022/10/01 08:54:27;;;;;;;20.20;6.80;;;14.10;99.90;;;;;;5063580;28;21312;-81
2022/10/01 08:56:55;;;;;;;22.50;5.88;;;14.30;99.90;;;;;;5048107;28;20044;-82
2022/10/01 08:59:36;;;;;;;24.15;6.15;;;14.40;99.90;;;;;;5052858;28;20044;-81
2022/10/01 09:02:09;;;;;;;12.68;4.32;;;14.60;99.90;;;;;;5068984;28;20060;-81
2022/10/01 09:04:35;;;;;;;17.63;4.70;;;14.60;99.90;;;;;;5021517;28;20046;-81
2022/10/01 09:07:27;;;;;;;17.48;4.28;;;14.60;99.90;;;;;;5022150;28;20052;-81
2022/10/01 09:10:03;;;;;;;12.32;3.92;;;14.50;99.90;;;;;;5064796;28;20056;-80
2022/10/01 09:12:42;;;;;;;;;;;14.60;99.90;;;;;;5047873;28;20044;-79
2022/10/01 09:15:33;;;;;;;14.23;3.58;;;14.70;99.90;;;;;;5052745;28;19971;-79
2022/10/01 09:18:10;;;;;;;17.35;3.65;;;14.80;99.90;;;;;;5058339;28;20093;-79
2022/10/01 09:20:40;;;;;;;14.93;2.85;;;14.90;99.90;;;;;;5048641;28;20079;-81
2022/10/01 09:23:29;;;;;;;13.60;3.83;;;14.90;99.90;;;;;;5071813;28;20433;-79
2022/10/01 09:25:59;;;;;;;18.67;3.22;;;15.00;99.90;;;;;;5051205;28;20055;-79
2022/10/01 09:28:33;;;;;;;14.38;2.65;;;15.20;99.90;;;;;;5053769;28;20075;-79
2022/10/01 09:31:12;;;;;;;9.45;2.35;;;15.40;99.90;;;;;;5051429;28;20105;-80
2022/10/01 09:34:02;;;;;;;11.70;2.20;;;15.60;99.90;;;;;;5051038;28;20044;-80
2022/10/01 09:36:36;;;;;;;14.88;2.63;;;15.70;99.90;;;;;;5051402;28;20040;-80
2022/10/01 09:39:16;;;;;;;10.90;2.17;;;15.50;99.90;;;;;;5049431;28;20055;-79
2022/10/01 09:41:44;;;;;;;13.45;2.33;;;15.40;99.90;;;;;;5034738;28;20055;-80
2022/10/01 09:44:26;;;;;;;12.52;2.58;;;15.40;99.90;;;;;;5044186;28;20055;-80
2022/10/01 09:46:54;;;;;;;8.95;2.05;;;15.30;99.90;;;;;;5045185;28;20512;-82
2022/10/01 09:49:32;;;;;;;8.80;1.70;;;15.00;99.90;;;;;;5068458;28;20399;-83
2022/10/01 09:52:05;;;;;;;11.45;2.28;;;14.80;99.90;;;;;;5063922;28;20074;-82
2022/10/01 09:54:42;;;;;;;9.48;1.55;;;14.80;99.90;;;;;;5048972;28;20499;-82
2022/10/01 09:57:17;;;;;;;9.20;2.03;;;14.90;99.90;;;;;;5064820;28;20049;-81
2022/10/01 09:59:47;;;;;;;9.52;1.50;;;15.10;99.90;;;;;;5052769;28;20131;-82
2022/10/01 10:02:40;;;;;;;8.32;1.58;;;15.30;99.90;;;;;;5053513;28;20052;-82
2022/10/01 10:05:13;;;;;;;8.73;1.90;;;15.30;99.90;;;;;;5048435;28;20045;-81
2022/10/01 10:07:42;;;;;;;11.77;1.70;;;15.10;99.90;;;;;;5069100;28;20051;-82
2022/10/01 10:10:32;;;;;;;8.02;1.55;;;14.80;99.90;;;;;;5049720;28;20044;-82
2022/10/01 10:13:04;;;;;;;5.20;1.30;;;14.80;99.90;;;;;;5060560;28;20562;-81
2022/10/01 10:15:31;;;;;;;5.93;1.27;;;14.80;99.90;;;;;;5070696;28;20508;-83
2022/10/01 10:18:15;;;;;;;7.15;1.10;;;14.50;99.90;;;;;;5036401;28;20044;-84
2022/10/01 10:20:43;;;;;;;8.02;1.75;;;14.10;99.90;;;;;;5056716;28;20773;-83
2022/10/01 10:23:21;;;;;;;4.97;1.50;;;13.70;99.90;;;;;;5054956;28;20131;-83
2022/10/01 10:26:04;;;;;;;9.27;1.85;;;13.70;99.90;;;;;;5041113;28;20553;-84
2022/10/01 10:28:43;;;;;;;12.98;1.70;;;13.70;99.90;;;;;;5052223;28;20053;-82
2022/10/01 10:31:23;;;;;;;8.52;1.67;;;13.50;99.90;;;;;;5060006;28;20520;-82
2022/10/01 10:33:51;;;;;;;13.00;2.17;;;13.30;99.90;;;;;;5054210;28;20048;-82
2022/10/01 10:36:18;;;;;;;12.15;2.58;;;13.20;99.90;;;;;;5054182;28;20047;-82
2022/10/01 10:38:49;;;;;;;11.35;2.30;;;13.10;99.90;;;;;;5063557;28;20088;-85
2022/10/01 10:41:18;;;;;;;11.43;2.20;;;13.10;99.90;;;;;;5057971;28;20036;-82
2022/10/01 10:43:47;;;;;;;10.80;2.40;;;13.10;99.90;;;;;;5074269;28;20052;-83
2022/10/01 10:46:27;;;;;;;9.27;2.30;;;13.10;99.90;;;;;;5074058;28;20128;-83
2022/10/01 10:49:15;;;;;;;14.77;3.10;;;13.10;99.90;;;;;;5072158;28;20047;-82
2022/10/01 10:51:48;;;;;;;11.60;3.00;;;13.00;99.90;;;;;;5073684;28;20134;-82
2022/10/01 10:54:22;;;;;;;12.45;3.33;;;13.00;99.90;;;;;;5057422;28;20074;-82
2022/10/01 10:56:59;;;;;;;12.85;2.90;;;12.90;99.90;;;;;;5073014;28;20550;-83
2022/10/01 10:59:25;;;;;;;14.48;3.97;;;13.00;99.90;;;;;;5056688;28;20036;-82
2022/10/01 11:01:52;;;;;;;15.13;3.45;;;12.90;99.90;;;;;;5076512;28;20043;-82
2022/10/01 11:04:28;;;;;;;11.00;2.88;;;13.00;99.90;;;;;;5057515;28;20048;-82
2022/10/01 11:06:55;;;;;;;;;;;13.10;99.90;;;;;;5057490;28;20064;-82
2022/10/01 11:09:25;;;;;;;14.13;2.90;;;13.20;99.90;;;;;;5072854;28;19924;-82
2022/10/01 11:12:00;;;;;;;9.88;2.60;;;13.20;99.90;;;;;;5056235;28;20059;-83
2022/10/01 11:14:49;;;;;;;9.50;2.47;;;13.30;99.90;;;;;;5055553;28;20237;-84
2022/10/01 11:17:29;;;;;;;9.27;2.28;;;13.30;99.90;;;;;;5072764;28;20047;-82
2022/10/01 11:20:17;;;;;;;17.58;2.45;;;13.20;99.90;;;;;;5056686;28;20067;-83
2022/10/01 11:23:00;;;;;;;10.57;2.30;;;13.30;99.90;;;;;;5056173;28;20452;-82
2022/10/01 11:25:40;;;;;;;13.73;3.17;;;13.60;99.90;;;;;;5073594;28;20381;-83
2022/10/01 11:28:30;;;;;;;11.32;2.20;;;14.00;99.90;;;;;;5042180;28;20482;-83
2022/10/01 11:31:11;;;;;;;12.60;2.80;;;14.00;99.90;;;;;;5061621;28;20056;-83
2022/10/01 11:33:56;;;;;;;9.35;1.73;;;13.80;99.90;;;;;;5056831;28;20052;-82
2022/10/01 11:36:35;;;;;;;12.80;2.78;;;13.70;99.90;;;;;;5057559;28;20355;-82
2022/10/01 11:39:04;;;;;;;10.43;2.17;;;13.90;99.90;;;;;;5047994;28;20051;-83
2022/10/01 11:41:39;;;;;;;13.38;2.80;;;14.40;99.90;;;;;;5073315;28;20101;-83
2022/10/01 11:44:21;;;;;;;11.77;2.90;;;14.80;99.90;;;;;;5050547;28;20058;-83
2022/10/01 11:46:53;;;;;;;10.45;2.67;;;15.00;99.90;;;;;;5066291;28;20417;-82
2022/10/01 11:49:26;;;;;;;11.25;4.78;;;15.20;99.90;;;;;;5066259;28;20093;-83
2022/10/01 11:52:17;;;;;;;10.13;2.80;;;15.40;99.90;;;;;;5051284;28;20060;-80
2022/10/01 12:01:31;;;;;;;11.40;2.38;;;16.30;99.90;;;;;;5041115;28;20073;-80
2022/10/01 12:04:03;;;;;;;10.60;2.92;;;16.90;99.90;;;;;;5064005;28;20126;-81
2022/10/01 12:06:34;;;;;;;12.57;2.38;;;17.40;99.90;;;;;;5041533;28;20036;-79
2022/10/01 12:09:38;;;;;;;10.48;2.33;;;18.30;99.90;;;;;;5043123;28;20045;-81
2022/10/01 12:12:10;;;;;;;8.55;2.13;;;18.20;99.90;;;;;;5035205;28;20640;-82
2022/10/01 12:14:43;;;;;;;11.30;2.30;;;17.50;99.90;;;;;;5059511;28;20956;-80
2022/10/01 12:17:14;;;;;;;11.45;2.35;;;16.70;99.90;;;;;;5042422;28;20048;-81
2022/10/01 12:19:45;;;;;;;13.70;2.35;;;16.10;99.90;;;;;;5055651;28;20040;-82
2022/10/01 12:22:20;;;;;;;14.48;2.85;;;15.70;99.90;;;;;;5048294;28;20478;-81
2022/10/01 12:24:47;;;;;;;11.20;2.42;;;15.30;99.90;;;;;;5070359;28;20043;-81
2022/10/01 12:27:28;;;;;;;12.55;2.63;;;14.90;99.90;;;;;;5052219;28;20645;-81
2022/10/01 12:30:08;;;;;;;13.50;2.92;;;14.60;99.90;;;;;;5047936;28;20493;-81
2022/10/01 12:32:46;;;;;;;14.85;2.70;;;14.40;99.90;;;;;;5055458;28;20085;-81
2022/10/01 12:35:18;;;;;;;14.52;2.20;;;14.20;99.90;;;;;;5058034;28;20056;-83
2022/10/01 12:38:14;;;;;;;11.73;2.33;;;13.90;99.90;;;;;;5048869;28;20044;-82
2022/10/01 12:41:02;;;;;;;15.45;5.40;;;14.30;99.90;;;;;;5050017;28;20063;-83
2022/10/01 12:43:37;;;;;;;10.55;2.13;;;15.40;99.90;;;;;;5057858;28;20056;-83
2022/10/01 12:46:21;;;;;;;13.23;2.65;;;15.20;99.90;;;;;;5032563;28;20144;-83
2022/10/01 12:48:56;;;;;;;7.65;1.95;;;15.60;99.90;;;;;;5036961;28;20505;-82
2022/10/01 12:51:51;;;;;;;12.10;2.05;;;16.10;99.90;;;;;;5032139;28;20183;-82
2022/10/01 12:54:32;;;;;;;12.18;2.72;;;16.80;99.90;;;;;;5025054;28;20083;-80
2022/10/01 12:57:21;;;;;;;10.70;2.50;;;17.10;99.90;;;;;;5042592;28;20039;-79
2022/10/01 13:00:07;;;;;;;11.32;2.60;;;17.60;99.90;;;;;;5069271;28;20052;-80
2022/10/01 13:02:58;;;;;;;9.55;2.22;;;18.10;99.90;;;;;;5035553;28;20052;-80